Impacts METAR Board
IDs:

KCLE - Cleveland/Hopkins In, OH, US

Updated at: 0100 UTC 31 May 2020
Potential Impact None Slight Moderate High
Time 30/13Z 30/14Z 30/15Z 30/16Z 30/17Z 30/18Z 30/19Z 30/20Z 30/21Z 30/22Z 30/23Z 31/00Z 31/01Z
Temp60 61 61 63 66 66 67 67 66 67 65 64 63
Dewpt55 54 52 53 53 52 48 45 44 43 43 43 43
Altim30.09 30.09 30.09 30.09 30.10 30.10 30.11 30.11 30.11 30.12 30.12 30.12 30.12
VIS10 10 10 10 10 10 10 10 10 10 10 10 10
CIG17 33 40 43 -- 34 46 -- 55 -- -- -- --
CoverOVCBKNOVCOVCSCTBKNBKNSCTBKNSCTSCTFEWSCT
FltCatMVFRVFRVFRVFRVFRVFRVFRVFRVFRVFRVFRVFRVFR
WX--------------------------
WDir280310300310290280290280310320340350350
WSpd8 9 10 8 9 13 13 11 9 7 9 5 3
WGst-- -- -- -- 17 17 23 19 -- -- -- -- --
Raw hourly METARs
KCLE 301251Z 28008KT 10SM BKN017 OVC055 16/13 A3009 RMK AO2 SLP187 T01560128 $
KCLE 301351Z 31009KT 10SM FEW017 SCT022 BKN033 16/12 A3009 RMK AO2 SLP189 T01610122 $
KCLE 301451Z 30010KT 10SM SCT024 BKN040 OVC060 16/11 A3009 RMK AO2 SLP188 T01610111 50009 $
KCLE 301551Z 31008KT 10SM FEW022 BKN043 OVC065 17/12 A3009 RMK AO2 SLP189 T01720117 $
KCLE 301651Z 29009G17KT 10SM SCT030 SCT038 19/12 A3010 RMK AO2 SLP190 T01890117 $
KCLE 301751Z 28013G17KT 10SM BKN034 BKN050 19/11 A3010 RMK AO2 SLP191 T01890111 10194 20150 51003 $
KCLE 301851Z 29013G23KT 10SM BKN046 19/09 A3011 RMK AO2 SLP193 T01940089 $
KCLE 301951Z 28011G19KT 10SM SCT050 19/07 A3011 RMK AO2 SLP194 T01940072 $
KCLE 302051Z 31009KT 10SM BKN055 19/07 A3011 RMK AO2 SLP195 T01890067 51004 $
KCLE 302151Z 32007KT 10SM SCT060 19/06 A3012 RMK AO2 SLP197 T01940061 $
KCLE 302251Z 34009KT 10SM SCT060 18/06 A3012 RMK AO2 SLP197 T01830061 $
KCLE 302351Z 35005KT 10SM FEW080 18/06 A3012 RMK AO2 SLP198 T01780061 10206 20178 51004 $
KCLE 310051Z 35003KT 10SM SCT080 17/06 A3012 RMK AO2 SLP198 T01720061 $



Page loaded:  01:18 UTC  |   06:18 PM Pacific  |   07:18 PM Mountain  |   08:18 PM Central  |   09:18 PM Eastern

 

ADVISORIES

FORECASTS

FORECASTS

OBSERVATIONS

USER TOOLS

ABOUT US